IN-0012 weather

Pakyong Airport (Under Construction)
Sikkim, India

Public forecast

Using degrees Celsius for public forecast. Weather courtesy of forecast.io.

Closest aviation weather report (METAR) to Pakyong Airport (Under Construction)

Report is more than 6 hours old.

Closest report is Bagdogra Airport, 35.8 nm (66.3 km) SSW. Retrieved 2019/11/05 09:30 UTC (2 months ago):

VEBD 050930Z 19003KT 5000 HZ SCT025 SCT100 29/20 Q1007 TEMPO 4000M

Closest aviation forecast (TAF) to Pakyong Airport (Under Construction)

Forecast is more than 6 hours old.

Closest forecast is Bagdogra Airport, 35.8 nm (66.3 km) SSW. Retrieved 2020/01/17 12:30 UTC (9 hours ago):

TAF VEBD 170930Z 1712/1724 18005KT 3000 HZ SCT030 BKN100 SCT250 BECMG 1717/1718 2000 BR TEMPO 1722/1724 RABR